createdAt,value
2023-04-12T00:00:54.034Z,94525.00
2023-04-12T00:01:54.168Z,94523.00
2023-04-12T00:02:54.426Z,94521.00
2023-04-12T00:03:54.451Z,94525.00
2023-04-12T00:04:54.367Z,94519.00
2023-04-12T00:05:54.370Z,94517.00
2023-04-12T00:06:54.438Z,94517.00
2023-04-12T00:07:54.487Z,94513.00
2023-04-12T00:08:54.535Z,94513.00
2023-04-12T00:09:54.590Z,94513.00
2023-04-12T00:10:54.645Z,94511.00
2023-04-12T00:11:54.684Z,94509.00
2023-04-12T00:12:54.801Z,94509.00
2023-04-12T00:13:55.055Z,94505.00
2023-04-12T00:14:54.892Z,94505.00
2023-04-12T00:15:55.035Z,94505.00
2023-04-12T00:16:55.034Z,94503.00
2023-04-12T00:17:55.175Z,94503.00
2023-04-12T00:18:55.570Z,94499.00
2023-04-12T00:19:55.227Z,94497.00
2023-04-12T00:20:55.283Z,94497.00
2023-04-12T00:21:55.349Z,94491.00
2023-04-12T00:22:55.426Z,94491.00
2023-04-12T00:23:55.723Z,94489.00
2023-04-12T00:24:55.507Z,94488.00
2023-04-12T00:25:55.577Z,94488.00
2023-04-12T00:26:55.645Z,94484.00
2023-04-12T00:27:55.701Z,94482.00
2023-04-12T00:28:55.779Z,94482.00
2023-04-12T00:29:55.847Z,94478.00
2023-04-12T00:30:55.909Z,94482.00
2023-04-12T00:31:55.960Z,94478.00
2023-04-12T00:32:56.065Z,94478.00
2023-04-12T00:33:56.502Z,94480.00
2023-04-12T00:34:56.157Z,94480.00
2023-04-12T00:35:56.207Z,94482.00
2023-04-12T00:36:56.270Z,94480.00
2023-04-12T00:37:56.340Z,94478.00
2023-04-12T00:38:56.381Z,94476.00
2023-04-12T00:39:56.435Z,94476.00
2023-04-12T00:40:56.531Z,94474.00
2023-04-12T00:41:56.537Z,94474.00
2023-04-12T00:42:56.640Z,94474.00
2023-04-12T00:43:57.226Z,94474.00
2023-04-12T00:44:56.734Z,94474.00
2023-04-12T00:45:56.815Z,94474.00
2023-04-12T00:46:56.916Z,94474.00
2023-04-12T00:47:56.924Z,94474.00
2023-04-12T00:48:56.987Z,94474.00
2023-04-12T00:49:57.086Z,94470.00
2023-04-12T00:50:57.103Z,94470.00
2023-04-12T00:51:57.160Z,94468.00
2023-04-12T00:52:57.226Z,94466.00
2023-04-12T00:53:57.544Z,94466.00
2023-04-12T00:54:57.339Z,94464.00
2023-04-12T00:55:57.395Z,94466.00
2023-04-12T00:56:57.471Z,94466.00
2023-04-12T00:57:57.543Z,94466.00
2023-04-12T00:58:57.565Z,94462.00
2023-04-12T00:59:57.629Z,94462.00
2023-04-12T01:00:57.735Z,94460.00
2023-04-12T01:01:57.817Z,94460.00
2023-04-12T01:02:57.906Z,94458.00
2023-04-12T01:03:58.178Z,94458.00
2023-04-12T01:04:57.910Z,94456.00
2023-04-12T01:05:57.975Z,94456.00
2023-04-12T01:06:58.028Z,94456.00
2023-04-12T01:07:58.084Z,94456.00
2023-04-12T01:08:58.121Z,94456.00
2023-04-12T01:09:58.215Z,94456.00
2023-04-12T01:10:58.262Z,94458.00
2023-04-12T01:11:58.346Z,94458.00
2023-04-12T01:12:58.377Z,94456.00
2023-04-12T01:13:58.555Z,94448.00
2023-04-12T01:14:58.508Z,94446.00
2023-04-12T01:15:58.576Z,94446.00
2023-04-12T01:16:58.658Z,94446.00
2023-04-12T01:17:58.848Z,94444.00
2023-04-12T01:18:58.768Z,94444.00
2023-04-12T01:19:58.825Z,94442.00
2023-04-12T01:20:58.895Z,94442.00
2023-04-12T01:21:58.951Z,94441.00
2023-04-12T01:22:59.008Z,94439.00
2023-04-12T01:23:59.311Z,94439.00
2023-04-12T01:24:59.115Z,94435.00
2023-04-12T01:25:59.266Z,94433.00
2023-04-12T01:26:59.245Z,94435.00
2023-04-12T01:27:59.286Z,94435.00
2023-04-12T01:28:59.340Z,94433.00
2023-04-12T01:29:59.421Z,94427.00
2023-04-12T01:30:59.572Z,94427.00
2023-04-12T01:31:59.611Z,94425.00
2023-04-12T01:32:59.608Z,94421.00
2023-04-12T01:33:59.813Z,94419.00
2023-04-12T01:34:59.716Z,94419.00
2023-04-12T01:35:59.854Z,94417.00
2023-04-12T01:36:59.810Z,94415.00
2023-04-12T01:37:59.868Z,94415.00
2023-04-12T01:38:59.910Z,94415.00
2023-04-12T01:39:59.991Z,94413.00
2023-04-12T01:41:00.062Z,94411.00
2023-04-12T01:42:00.118Z,94409.00
2023-04-12T01:43:00.213Z,94407.00
2023-04-12T01:44:00.222Z,94403.00
2023-04-12T01:45:00.295Z,94403.00
2023-04-12T01:46:00.412Z,94403.00
2023-04-12T01:47:00.550Z,94403.00
2023-04-12T01:48:00.518Z,94407.00
2023-04-12T01:49:00.569Z,94407.00
2023-04-12T01:50:00.617Z,94409.00
2023-04-12T01:51:00.686Z,94411.00
2023-04-12T01:52:00.752Z,94407.00
2023-04-12T01:53:00.841Z,94405.00
2023-04-12T01:54:00.846Z,94405.00
2023-04-12T01:55:00.921Z,94407.00
2023-04-12T01:56:00.982Z,94405.00
2023-04-12T01:57:01.087Z,94405.00
2023-04-12T01:58:01.099Z,94409.00
2023-04-12T01:59:01.204Z,94403.00
2023-04-12T02:00:01.294Z,94405.00
2023-04-12T02:01:01.351Z,94403.00
2023-04-12T02:02:01.433Z,94403.00
2023-04-12T02:03:01.573Z,94401.00
2023-04-12T02:04:01.910Z,94403.00
2023-04-12T02:05:01.624Z,94403.00
2023-04-12T02:06:01.611Z,94403.00
2023-04-12T02:07:01.634Z,94403.00
2023-04-12T02:08:01.724Z,94399.00
2023-04-12T02:09:01.792Z,94401.00
2023-04-12T02:10:01.889Z,94403.00
2023-04-12T02:11:01.927Z,94403.00
2023-04-12T02:12:02.010Z,94403.00
2023-04-12T02:13:02.076Z,94405.00
2023-04-12T02:14:02.100Z,94405.00
2023-04-12T02:15:02.177Z,94403.00
2023-04-12T02:16:02.297Z,94403.00
2023-04-12T02:17:02.518Z,94403.00
2023-04-12T02:18:02.430Z,94401.00
2023-04-12T02:19:02.980Z,94403.00
2023-04-12T02:20:02.514Z,94401.00
2023-04-12T02:21:02.557Z,94403.00
2023-04-12T02:22:02.577Z,94403.00
2023-04-12T02:23:02.659Z,94405.00
2023-04-12T02:24:02.756Z,94405.00
2023-04-12T02:25:02.821Z,94405.00
2023-04-12T02:26:02.817Z,94407.00
2023-04-12T02:27:02.882Z,94405.00
2023-04-12T02:28:02.948Z,94405.00
2023-04-12T02:29:03.051Z,94405.00
2023-04-12T02:30:03.103Z,94405.00
2023-04-12T02:31:03.198Z,94407.00
2023-04-12T02:32:03.162Z,94405.00
2023-04-12T02:33:03.341Z,94405.00
2023-04-12T02:34:03.279Z,94407.00
2023-04-12T02:35:03.340Z,94411.00
2023-04-12T02:36:03.437Z,94409.00
2023-04-12T02:37:03.453Z,94409.00
2023-04-12T02:38:03.529Z,94411.00
2023-04-12T02:39:03.568Z,94411.00
2023-04-12T02:40:03.600Z,94415.00
2023-04-12T02:41:03.730Z,94417.00
2023-04-12T02:42:03.690Z,94417.00
2023-04-12T02:43:03.729Z,94419.00
2023-04-12T02:44:03.776Z,94419.00
2023-04-12T02:45:03.835Z,94419.00
2023-04-12T02:46:03.972Z,94421.00
2023-04-12T02:47:03.937Z,94421.00
2023-04-12T02:48:04.060Z,94419.00
2023-04-12T02:49:04.047Z,94417.00
2023-04-12T02:50:04.090Z,94415.00
2023-04-12T02:51:04.158Z,94417.00
2023-04-12T02:52:04.205Z,94413.00
2023-04-12T02:53:04.284Z,94413.00
2023-04-12T02:54:04.332Z,94413.00
2023-04-12T02:55:04.405Z,94415.00
2023-04-12T02:56:06.200Z,94415.00
2023-04-12T02:57:04.466Z,94417.00
2023-04-12T02:58:04.561Z,94417.00
2023-04-12T02:59:04.626Z,94417.00
2023-04-12T03:00:04.681Z,94415.00
2023-04-12T03:01:04.851Z,94413.00
2023-04-12T03:02:04.921Z,94413.00
2023-04-12T03:03:04.949Z,94415.00
2023-04-12T03:04:04.923Z,94413.00
2023-04-12T03:05:04.910Z,94413.00
2023-04-12T03:06:05.001Z,94411.00
2023-04-12T03:07:04.983Z,94411.00
2023-04-12T03:08:05.046Z,94409.00
2023-04-12T03:09:05.050Z,94409.00
2023-04-12T03:10:05.053Z,94409.00
2023-04-12T03:11:05.058Z,94409.00
2023-04-12T03:12:05.051Z,94411.00
2023-04-12T03:13:05.152Z,94409.00
2023-04-12T03:14:05.136Z,94407.00
2023-04-12T03:15:05.152Z,94405.00
2023-04-12T03:16:05.270Z,94403.00
2023-04-12T03:17:05.229Z,94403.00
2023-04-12T03:18:05.285Z,94407.00
2023-04-12T03:19:05.338Z,94403.00
2023-04-12T03:20:05.350Z,94403.00
2023-04-12T03:21:05.439Z,94405.00
2023-04-12T03:22:05.503Z,94407.00
2023-04-12T03:23:05.561Z,94405.00
2023-04-12T03:24:05.546Z,94403.00
2023-04-12T03:25:05.669Z,94403.00
2023-04-12T03:26:05.682Z,94399.00
2023-04-12T03:27:05.682Z,94399.00
2023-04-12T03:28:05.682Z,94403.00
2023-04-12T03:29:05.745Z,94399.00
2023-04-12T03:30:05.810Z,94399.00
2023-04-12T03:31:05.850Z,94399.00
2023-04-12T03:32:05.876Z,94399.00
2023-04-12T03:33:05.859Z,94399.00
2023-04-12T03:34:05.873Z,94401.00
2023-04-12T03:35:05.876Z,94403.00
2023-04-12T03:36:05.901Z,94403.00
2023-04-12T03:37:05.955Z,94405.00
2023-04-12T03:38:05.960Z,94405.00
2023-04-12T03:39:05.974Z,94405.00
2023-04-12T03:40:05.966Z,94401.00
2023-04-12T03:41:05.977Z,94405.00
2023-04-12T03:42:05.997Z,94405.00
2023-04-12T03:43:05.989Z,94403.00
2023-04-12T03:44:05.997Z,94403.00
2023-04-12T03:45:06.005Z,94401.00
2023-04-12T03:46:06.029Z,94403.00
2023-04-12T03:47:06.108Z,94399.00
2023-04-12T03:48:06.062Z,94397.00
2023-04-12T03:49:06.082Z,94394.00
2023-04-12T03:50:11.395Z,94394.00
2023-04-12T03:51:07.072Z,94395.00
2023-04-12T03:52:06.095Z,94395.00
2023-04-12T03:53:06.062Z,94392.00
2023-04-12T03:54:06.077Z,94392.00
2023-04-12T03:55:06.052Z,94390.00
2023-04-12T03:56:06.008Z,94380.00
2023-04-12T03:57:06.093Z,94388.00
2023-04-12T03:58:06.028Z,94380.00
2023-04-12T03:59:06.039Z,94378.00
2023-04-12T04:00:06.033Z,94376.00
2023-04-12T04:01:06.112Z,94376.00
2023-04-12T04:02:06.119Z,94378.00
2023-04-12T04:03:06.118Z,94380.00
2023-04-12T04:04:06.182Z,94378.00
2023-04-12T04:05:06.104Z,94380.00
2023-04-12T04:06:06.102Z,94388.00
2023-04-12T04:07:06.099Z,94390.00
2023-04-12T04:08:06.069Z,94392.00
2023-04-12T04:09:06.066Z,94390.00
2023-04-12T04:10:06.074Z,94388.00
2023-04-12T04:11:07.787Z,94376.00
2023-04-12T04:12:06.049Z,94376.00
2023-04-12T04:13:06.058Z,94378.00
2023-04-12T04:14:06.036Z,94374.00
2023-04-12T04:15:06.055Z,94374.00
2023-04-12T04:16:06.051Z,94376.00
2023-04-12T04:17:06.022Z,94376.00
2023-04-12T04:18:05.985Z,94378.00
2023-04-12T04:19:06.000Z,94378.00
2023-04-12T04:20:06.029Z,94372.00
2023-04-12T04:21:05.984Z,94376.00
2023-04-12T04:22:05.990Z,94374.00
2023-04-12T04:23:05.974Z,94372.00
2023-04-12T04:24:06.506Z,94374.00
2023-04-12T04:25:05.984Z,94368.00
2023-04-12T04:26:05.945Z,94368.00
2023-04-12T04:27:05.980Z,94364.00
2023-04-12T04:28:05.964Z,94364.00
2023-04-12T04:29:05.938Z,94362.00
2023-04-12T04:30:05.917Z,94362.00
2023-04-12T04:31:05.912Z,94358.00
2023-04-12T04:32:05.919Z,94358.00
2023-04-12T04:33:05.958Z,94356.00
2023-04-12T04:34:05.872Z,94358.00
2023-04-12T04:35:05.920Z,94358.00
2023-04-12T04:36:05.892Z,94358.00
2023-04-12T04:37:05.856Z,94352.00
2023-04-12T04:38:05.897Z,94352.00
2023-04-12T04:39:05.834Z,94349.00
2023-04-12T04:40:05.884Z,94352.00
2023-04-12T04:41:05.856Z,94352.00
2023-04-12T04:42:05.839Z,94352.00
2023-04-12T04:43:08.152Z,94350.00
2023-04-12T04:44:05.906Z,94352.00
2023-04-12T04:45:05.947Z,94347.00
2023-04-12T04:46:06.037Z,94345.00
2023-04-12T04:47:06.093Z,94345.00
2023-04-12T04:48:06.183Z,94345.00
2023-04-12T04:49:06.148Z,94345.00
2023-04-12T04:50:06.138Z,94343.00
2023-04-12T04:51:06.108Z,94347.00
2023-04-12T04:52:06.121Z,94345.00
2023-04-12T04:53:06.106Z,94345.00
2023-04-12T04:54:06.115Z,94343.00
2023-04-12T04:55:07.946Z,94343.00
2023-04-12T04:56:06.100Z,94343.00
2023-04-12T04:57:06.082Z,94343.00
2023-04-12T04:58:06.140Z,94343.00
2023-04-12T04:59:06.089Z,94341.00
2023-04-12T05:00:06.090Z,94343.00
2023-04-12T05:01:06.072Z,94341.00
2023-04-12T05:02:06.186Z,94339.00
2023-04-12T05:03:06.160Z,94337.00
2023-04-12T05:04:06.204Z,94339.00
2023-04-12T05:05:06.042Z,94343.00
2023-04-12T05:06:06.077Z,94345.00
2023-04-12T05:07:06.049Z,94347.00
2023-04-12T05:08:06.034Z,94347.00
2023-04-12T05:09:06.041Z,94350.00
2023-04-12T05:10:05.996Z,94347.00
2023-04-12T05:11:06.007Z,94347.00
2023-04-12T05:12:05.984Z,94347.00
2023-04-12T05:13:06.004Z,94345.00
2023-04-12T05:14:05.996Z,94345.00
2023-04-12T05:15:11.752Z,94343.00
2023-04-12T05:16:06.962Z,94343.00
2023-04-12T05:17:06.137Z,94341.00
2023-04-12T05:18:06.020Z,94337.00
2023-04-12T05:19:05.929Z,94337.00
2023-04-12T05:20:05.965Z,94339.00
2023-04-12T05:21:05.925Z,94343.00
2023-04-12T05:22:05.978Z,94347.00
2023-04-12T05:23:05.939Z,94339.00
2023-04-12T05:24:05.891Z,94337.00
2023-04-12T05:25:05.894Z,94339.00
2023-04-12T05:26:05.905Z,94343.00
2023-04-12T05:27:05.890Z,94339.00
2023-04-12T05:28:05.910Z,94339.00
2023-04-12T05:29:05.920Z,94337.00
2023-04-12T05:30:05.874Z,94337.00
2023-04-12T05:31:05.953Z,94335.00
2023-04-12T05:32:05.871Z,94329.00
2023-04-12T05:33:06.018Z,94327.00
2023-04-12T05:34:05.858Z,94329.00
2023-04-12T05:35:05.865Z,94323.00
2023-04-12T05:36:05.898Z,94329.00
2023-04-12T05:37:05.837Z,94325.00
2023-04-12T05:38:05.855Z,94325.00
2023-04-12T05:39:05.954Z,94325.00
2023-04-12T05:40:05.863Z,94323.00
2023-04-12T05:41:05.894Z,94321.00
2023-04-12T05:42:05.950Z,94321.00
2023-04-12T05:43:06.015Z,94319.00
2023-04-12T05:44:06.089Z,94321.00
2023-04-12T05:45:06.051Z,94323.00
2023-04-12T05:46:06.114Z,94325.00
2023-04-12T05:47:06.100Z,94321.00
2023-04-12T05:48:06.174Z,94317.00
2023-04-12T05:49:06.566Z,94313.00
2023-04-12T05:50:07.060Z,94309.00
2023-04-12T05:51:06.275Z,94315.00
2023-04-12T05:52:06.370Z,94309.00
2023-04-12T05:53:06.346Z,94309.00
2023-04-12T05:54:06.575Z,94311.00
2023-04-12T05:55:06.460Z,94313.00
2023-04-12T05:56:06.339Z,94307.00
2023-04-12T05:57:06.438Z,94303.00
2023-04-12T05:58:06.542Z,94305.00
2023-04-12T05:59:06.544Z,94303.00
2023-04-12T06:00:06.568Z,94300.00
2023-04-12T06:01:06.671Z,94302.00
2023-04-12T06:02:06.787Z,94302.00
2023-04-12T06:03:06.835Z,94298.00
2023-04-12T06:04:06.963Z,94298.00
2023-04-12T06:05:06.992Z,94294.00
2023-04-12T06:06:06.910Z,94292.00
2023-04-12T06:07:07.077Z,94288.00
2023-04-12T06:08:06.995Z,94290.00
2023-04-12T06:09:07.032Z,94290.00
2023-04-12T06:10:07.048Z,94286.00
2023-04-12T06:11:07.062Z,94284.00
2023-04-12T06:12:07.077Z,94284.00
2023-04-12T06:13:07.078Z,94284.00
2023-04-12T06:14:07.155Z,94284.00
2023-04-12T06:15:07.170Z,94280.00
2023-04-12T06:16:07.234Z,94284.00
2023-04-12T06:17:07.186Z,94282.00
2023-04-12T06:18:07.195Z,94280.00
2023-04-12T06:19:07.244Z,94278.00
2023-04-12T06:20:07.209Z,94276.00
2023-04-12T06:21:07.197Z,94272.00
2023-04-12T06:22:07.223Z,94268.00
2023-04-12T06:23:07.257Z,94264.00
2023-04-12T06:24:07.335Z,94264.00
2023-04-12T06:25:07.276Z,94264.00
2023-04-12T06:26:07.301Z,94262.00
2023-04-12T06:27:07.255Z,94262.00
2023-04-12T06:28:07.245Z,94262.00
2023-04-12T06:29:07.264Z,94258.00
2023-04-12T06:30:07.262Z,94258.00
2023-04-12T06:31:07.338Z,94260.00
2023-04-12T06:32:07.239Z,94256.00
2023-04-12T06:33:07.313Z,94253.00
2023-04-12T06:34:07.298Z,94255.00
2023-04-12T06:35:07.227Z,94255.00
2023-04-12T06:36:07.279Z,94253.00
2023-04-12T06:37:07.236Z,94253.00
2023-04-12T06:38:07.241Z,94255.00
2023-04-12T06:39:07.420Z,94253.00
2023-04-12T06:40:07.300Z,94255.00
2023-04-12T06:41:07.336Z,94249.00
2023-04-12T06:42:08.082Z,94247.00
2023-04-12T06:43:07.373Z,94247.00
2023-04-12T06:44:07.377Z,94255.00
2023-04-12T06:45:07.438Z,94249.00
2023-04-12T06:46:07.430Z,94247.00
2023-04-12T06:47:07.520Z,94247.00
2023-04-12T06:48:07.524Z,94245.00
2023-04-12T06:49:07.492Z,94249.00
2023-04-12T06:50:07.497Z,94245.00
2023-04-12T06:51:07.581Z,94245.00
2023-04-12T06:52:07.671Z,94239.00
2023-04-12T06:53:07.664Z,94237.00
2023-04-12T06:54:07.753Z,94241.00
2023-04-12T06:55:07.768Z,94235.00
2023-04-12T06:56:07.829Z,94237.00
2023-04-12T06:57:07.992Z,94239.00
2023-04-12T06:58:07.926Z,94237.00
2023-04-12T06:59:07.969Z,94235.00
2023-04-12T07:00:08.068Z,94233.00
2023-04-12T07:01:08.118Z,94233.00
2023-04-12T07:02:08.108Z,94227.00
2023-04-12T07:03:08.156Z,94227.00
2023-04-12T07:04:08.138Z,94221.00
2023-04-12T07:05:08.118Z,94223.00
2023-04-12T07:06:23.707Z,94221.00
2023-04-12T07:07:09.153Z,94219.00
2023-04-12T07:08:08.121Z,94219.00
2023-04-12T07:09:08.131Z,94219.00
2023-04-12T07:10:08.114Z,94221.00
2023-04-12T07:11:20.038Z,94219.00
2023-04-12T07:12:09.096Z,94219.00
2023-04-12T07:13:08.119Z,94219.00
2023-04-12T07:14:08.104Z,94217.00
2023-04-12T07:15:08.127Z,94221.00
2023-04-12T07:16:08.257Z,94217.00
2023-04-12T07:17:08.089Z,94215.00
2023-04-12T07:18:08.094Z,94213.00
2023-04-12T07:19:08.118Z,94211.00
2023-04-12T07:20:08.123Z,94215.00
2023-04-12T07:21:08.053Z,94213.00
2023-04-12T07:22:08.059Z,94213.00
2023-04-12T07:23:08.153Z,94211.00
2023-04-12T07:24:08.031Z,94208.00
2023-04-12T07:25:08.034Z,94206.00
2023-04-12T07:26:08.073Z,94202.00
2023-04-12T07:27:07.982Z,94202.00
2023-04-12T07:28:09.154Z,94196.00
2023-04-12T07:29:08.001Z,94192.00
2023-04-12T07:30:07.965Z,94190.00
2023-04-12T07:31:08.034Z,94188.00
2023-04-12T07:32:07.980Z,94190.00
2023-04-12T07:33:18.369Z,94192.00
2023-04-12T07:34:09.055Z,94194.00
2023-04-12T07:35:07.951Z,94198.00
2023-04-12T07:36:07.966Z,94196.00
2023-04-12T07:37:07.971Z,94192.00
2023-04-12T07:38:07.978Z,94192.00
2023-04-12T07:39:07.922Z,94194.00
2023-04-12T07:40:07.938Z,94190.00
2023-04-12T07:41:07.902Z,94188.00
2023-04-12T07:42:07.973Z,94194.00
2023-04-12T07:43:07.903Z,94192.00
2023-04-12T07:44:07.904Z,94192.00
2023-04-12T07:45:07.866Z,94190.00
2023-04-12T07:46:07.917Z,94190.00
2023-04-12T07:47:07.904Z,94188.00
2023-04-12T07:48:07.910Z,94188.00
2023-04-12T07:49:07.897Z,94188.00
2023-04-12T07:50:07.837Z,94190.00
2023-04-12T07:51:07.848Z,94188.00
2023-04-12T07:52:07.866Z,94188.00
2023-04-12T07:53:07.925Z,94186.00
2023-04-12T07:54:07.937Z,94188.00
2023-04-12T07:55:07.950Z,94190.00
2023-04-12T07:56:08.099Z,94188.00
2023-04-12T07:57:08.081Z,94190.00
2023-04-12T07:58:08.158Z,94190.00
2023-04-12T07:59:08.199Z,94188.00
2023-04-12T08:00:08.276Z,94186.00
2023-04-12T08:01:08.290Z,94182.00
2023-04-12T08:02:08.580Z,94182.00
2023-04-12T08:03:08.500Z,94184.00
2023-04-12T08:04:08.529Z,94182.00
2023-04-12T08:05:08.403Z,94186.00
2023-04-12T08:06:08.535Z,94184.00
2023-04-12T08:07:08.460Z,94192.00
2023-04-12T08:08:08.471Z,94184.00
2023-04-12T08:09:08.541Z,94188.00
2023-04-12T08:10:09.031Z,94188.00
2023-04-12T08:11:08.601Z,94184.00
2023-04-12T08:12:08.558Z,94182.00
2023-04-12T08:13:08.607Z,94180.00
2023-04-12T08:14:08.606Z,94188.00
2023-04-12T08:15:08.606Z,94188.00
2023-04-12T08:16:08.653Z,94196.00
2023-04-12T08:17:08.664Z,94190.00
2023-04-12T08:18:08.670Z,94192.00
2023-04-12T08:19:08.649Z,94190.00
2023-04-12T08:20:08.663Z,94190.00
2023-04-12T08:21:08.669Z,94190.00
2023-04-12T08:22:08.647Z,94194.00
2023-04-12T08:23:08.678Z,94200.00
2023-04-12T08:24:08.689Z,94206.00
2023-04-12T08:25:08.687Z,94206.00
2023-04-12T08:26:08.695Z,94204.00
2023-04-12T08:27:08.696Z,94208.00
2023-04-12T08:28:08.707Z,94202.00
2023-04-12T08:29:08.732Z,94202.00
2023-04-12T08:30:08.739Z,94200.00
2023-04-12T08:31:08.818Z,94204.00
2023-04-12T08:32:08.785Z,94200.00
2023-04-12T08:33:08.838Z,94206.00
2023-04-12T08:34:08.910Z,94206.00
2023-04-12T08:35:08.951Z,94200.00
2023-04-12T08:36:09.114Z,94200.00
2023-04-12T08:37:09.058Z,94196.00
2023-04-12T08:38:09.087Z,94196.00
2023-04-12T08:39:09.110Z,94192.00
2023-04-12T08:40:09.127Z,94190.00
2023-04-12T08:41:09.093Z,94184.00
2023-04-12T08:42:09.123Z,94182.00
2023-04-12T08:43:09.164Z,94176.00
2023-04-12T08:44:09.116Z,94168.00
2023-04-12T08:45:09.077Z,94162.00
2023-04-12T08:46:09.204Z,94160.00
2023-04-12T08:47:09.095Z,94156.00
2023-04-12T08:48:09.141Z,94156.00
2023-04-12T08:49:09.181Z,94158.00
2023-04-12T08:50:09.278Z,94160.00
2023-04-12T08:51:09.288Z,94162.00
2023-04-12T08:52:09.340Z,94160.00
2023-04-12T08:53:09.446Z,94158.00
2023-04-12T08:54:09.469Z,94154.00
2023-04-12T08:55:09.523Z,94154.00
2023-04-12T08:56:09.627Z,94151.00
2023-04-12T08:57:09.712Z,94149.00
2023-04-12T08:58:09.747Z,94149.00
2023-04-12T08:59:09.816Z,94149.00
2023-04-12T09:00:09.849Z,94141.00
2023-04-12T09:01:09.854Z,94145.00
2023-04-12T09:02:09.966Z,94149.00
2023-04-12T09:03:10.091Z,94143.00
2023-04-12T09:04:10.383Z,94147.00
2023-04-12T09:05:09.987Z,94145.00
2023-04-12T09:06:09.987Z,94143.00
2023-04-12T09:07:09.976Z,94143.00
2023-04-12T09:08:10.003Z,94145.00
2023-04-12T09:09:10.632Z,94141.00
2023-04-12T09:10:10.013Z,94147.00
2023-04-12T09:11:10.181Z,94145.00
2023-04-12T09:12:10.019Z,94141.00
2023-04-12T09:13:10.056Z,94137.00
2023-04-12T09:14:10.067Z,94137.00
2023-04-12T09:15:10.044Z,94137.00
2023-04-12T09:16:10.124Z,94131.00
2023-04-12T09:17:10.149Z,94123.00
2023-04-12T09:18:10.240Z,94121.00
2023-04-12T09:19:10.106Z,94121.00
2023-04-12T09:20:10.040Z,94117.00
2023-04-12T09:21:10.044Z,94115.00
2023-04-12T09:22:10.071Z,94115.00
2023-04-12T09:23:10.065Z,94109.00
2023-04-12T09:24:12.622Z,94108.00
2023-04-12T09:25:11.103Z,94108.00
2023-04-12T09:26:10.083Z,94106.00
2023-04-12T09:27:10.041Z,94102.00
2023-04-12T09:28:10.040Z,94100.00
2023-04-12T09:29:10.036Z,94098.00
2023-04-12T09:30:10.043Z,94098.00
2023-04-12T09:31:10.073Z,94098.00
2023-04-12T09:32:10.008Z,94104.00
2023-04-12T09:33:10.044Z,94106.00
2023-04-12T09:34:10.038Z,94104.00
2023-04-12T09:35:10.078Z,94100.00
2023-04-12T09:36:10.208Z,94106.00
2023-04-12T09:37:10.162Z,94098.00
2023-04-12T09:38:10.255Z,94094.00
2023-04-12T09:39:10.776Z,94090.00
2023-04-12T09:40:10.319Z,94088.00
2023-04-12T09:41:10.399Z,94084.00
2023-04-12T09:42:21.516Z,94082.00
2023-04-12T09:43:11.416Z,94082.00
2023-04-12T09:44:10.734Z,94080.00
2023-04-12T09:45:10.374Z,94080.00
2023-04-12T09:46:10.488Z,94074.00
2023-04-12T09:47:10.390Z,94074.00
2023-04-12T09:48:10.470Z,94068.00
2023-04-12T09:49:10.680Z,94068.00
2023-04-12T09:50:10.410Z,94066.00
2023-04-12T09:51:10.372Z,94068.00
2023-04-12T09:52:10.374Z,94062.00
2023-04-12T09:53:10.473Z,94062.00
2023-04-12T09:54:10.515Z,94055.00
2023-04-12T09:55:10.728Z,94051.00
2023-04-12T09:56:10.614Z,94053.00
2023-04-12T09:57:10.690Z,94051.00
2023-04-12T09:58:10.768Z,94051.00
2023-04-12T09:59:11.663Z,94047.00
2023-04-12T10:00:10.926Z,94041.00
2023-04-12T10:01:10.946Z,94041.00
2023-04-12T10:02:11.093Z,94035.00
2023-04-12T10:03:11.489Z,94029.00
2023-04-12T10:04:11.256Z,94027.00
2023-04-12T10:05:11.302Z,94023.00
2023-04-12T10:06:11.263Z,94017.00
2023-04-12T10:07:13.212Z,94014.00
2023-04-12T10:08:11.309Z,94012.00
2023-04-12T10:09:11.286Z,94010.00
2023-04-12T10:10:11.304Z,94002.00
2023-04-12T10:11:11.251Z,93998.00
2023-04-12T10:12:11.240Z,93998.00
2023-04-12T10:13:11.336Z,93998.00
2023-04-12T10:14:11.262Z,93996.00
2023-04-12T10:15:11.283Z,93992.00
2023-04-12T10:16:11.355Z,93990.00
2023-04-12T10:17:11.241Z,93988.00
2023-04-12T10:18:11.371Z,93988.00
2023-04-12T10:19:11.272Z,93978.00
2023-04-12T10:20:11.228Z,93974.00
2023-04-12T10:21:11.262Z,93972.00
2023-04-12T10:22:11.214Z,93974.00
2023-04-12T10:23:11.214Z,93968.00
2023-04-12T10:24:11.710Z,93967.00
2023-04-12T10:25:11.202Z,93968.00
2023-04-12T10:26:11.202Z,93967.00
2023-04-12T10:27:11.178Z,93968.00
2023-04-12T10:28:11.216Z,93967.00
2023-04-12T10:29:11.149Z,93961.00
2023-04-12T10:30:11.168Z,93959.00
2023-04-12T10:31:11.287Z,93955.00
2023-04-12T10:32:11.243Z,93953.00
2023-04-12T10:33:11.223Z,93955.00
2023-04-12T10:34:11.164Z,93953.00
2023-04-12T10:35:11.119Z,93949.00
2023-04-12T10:36:11.399Z,93947.00
2023-04-12T10:37:11.120Z,93947.00
2023-04-12T10:38:11.107Z,93939.00
2023-04-12T10:39:11.126Z,93943.00
2023-04-12T10:40:11.112Z,93939.00
2023-04-12T10:41:11.131Z,93941.00
2023-04-12T10:42:11.101Z,93939.00
2023-04-12T10:43:11.083Z,93943.00
2023-04-12T10:44:11.051Z,93937.00
2023-04-12T10:45:11.071Z,93939.00
2023-04-12T10:46:11.089Z,93939.00
2023-04-12T10:47:11.099Z,93937.00
2023-04-12T10:48:11.108Z,93937.00
2023-04-12T10:49:11.031Z,93933.00
2023-04-12T10:50:11.132Z,93933.00
2023-04-12T10:51:11.116Z,93931.00
2023-04-12T10:52:11.167Z,93927.00
2023-04-12T10:53:11.270Z,93923.00
2023-04-12T10:54:11.256Z,93921.00
2023-04-12T10:55:11.344Z,93920.00
2023-04-12T10:56:11.404Z,93920.00
2023-04-12T10:57:11.370Z,93914.00
2023-04-12T10:58:11.432Z,93908.00
2023-04-12T10:59:11.484Z,93902.00
2023-04-12T11:00:11.546Z,93902.00
2023-04-12T11:01:11.843Z,93900.00
2023-04-12T11:02:11.869Z,93906.00
2023-04-12T11:03:11.921Z,93906.00
2023-04-12T11:04:11.892Z,93904.00
2023-04-12T11:05:11.983Z,93902.00
2023-04-12T11:06:26.622Z,93900.00
2023-04-12T11:07:12.776Z,93896.00
2023-04-12T11:08:11.860Z,93892.00
2023-04-12T11:09:11.733Z,93886.00
2023-04-12T11:10:11.728Z,93882.00
2023-04-12T11:11:11.765Z,93880.00
2023-04-12T11:12:11.720Z,93876.00
2023-04-12T11:13:11.725Z,93867.00
2023-04-12T11:14:11.701Z,93867.00
2023-04-12T11:15:11.725Z,93865.00
2023-04-12T11:16:11.759Z,93865.00
2023-04-12T11:17:11.753Z,93863.00
2023-04-12T11:18:11.796Z,93863.00
2023-04-12T11:19:11.737Z,93863.00
2023-04-12T11:20:11.826Z,93857.00
2023-04-12T11:21:11.875Z,93851.00
2023-04-12T11:22:11.957Z,93847.00
2023-04-12T11:23:11.979Z,93847.00
2023-04-12T11:24:12.031Z,93839.00
2023-04-12T11:25:12.065Z,93839.00
2023-04-12T11:26:12.216Z,93835.00
2023-04-12T11:27:12.159Z,93829.00
2023-04-12T11:28:27.429Z,93831.00
2023-04-12T11:29:13.233Z,93828.00
2023-04-12T11:30:12.289Z,93824.00
2023-04-12T11:31:12.227Z,93820.00
2023-04-12T11:32:12.282Z,93818.00
2023-04-12T11:33:12.363Z,93816.00
2023-04-12T11:34:15.369Z,93812.00
2023-04-12T11:35:12.172Z,93808.00
2023-04-12T11:36:12.193Z,93800.00
2023-04-12T11:37:12.151Z,93798.00
2023-04-12T11:38:12.164Z,93794.00
2023-04-12T11:39:12.161Z,93794.00
2023-04-12T11:40:12.267Z,93792.00
2023-04-12T11:41:12.137Z,93790.00
2023-04-12T11:42:12.137Z,93784.00
2023-04-12T11:43:12.137Z,93778.00
2023-04-12T11:44:12.099Z,93778.00
2023-04-12T11:45:17.166Z,93776.00